Time;durP1;ratioP1;P1;durP2;ratioP2;P2;SDS_P1;SDS_P2;PMS_P1;PMS_P2;Temp;Humidity;BMP_temperature;BMP_pressure;BME280_temperature;BME280_humidity;BME280_pressure;Samples;Min_cycle;Max_cycle;Signal;HPM_P1;HPM_P2
2022/07/12 00:07:55;;;;;;;1.50;1.00;;;;;;;12.47;78.68;99720.23;434318;1268;59737;-53
2022/07/12 00:18:01;;;;;;;2.10;0.70;;;;;;;12.47;78.65;99724.79;434430;1268;60433;-55
2022/07/12 00:28:08;;;;;;;3.20;0.90;;;;;;;12.48;78.59;99730.89;434522;1266;71805;-56
2022/07/12 00:38:14;;;;;;;2.50;1.50;;;;;;;12.50;78.48;99731.83;434799;1268;69743;-56
2022/07/12 00:48:20;;;;;;;2.70;1.10;;;;;;;12.51;78.46;99734.02;434242;1267;71255;-55
2022/07/12 00:58:27;;;;;;;3.90;1.40;;;;;;;12.49;78.52;99735.55;433856;1267;59799;-56
2022/07/12 01:08:35;;;;;;;0.70;0.70;;;;;;;12.44;78.46;99729.59;434616;1267;59832;-54
2022/07/12 01:18:42;;;;;;;4.00;1.10;;;;;;;12.40;78.48;99728.43;437284;1266;73190;-57
2022/07/12 01:28:48;;;;;;;1.40;0.70;;;;;;;12.37;78.52;99723.04;435022;1267;68314;-57
2022/07/12 01:38:54;;;;;;;2.70;0.60;;;;;;;12.33;78.42;99718.21;434575;1268;71331;-56
2022/07/12 01:49:00;;;;;;;1.60;0.90;;;;;;;12.19;78.56;99712.88;434349;1266;60000;-55
2022/07/12 01:59:07;;;;;;;2.70;0.70;;;;;;;12.15;78.98;99713.66;434438;1266;59945;-55
2022/07/12 02:09:13;;;;;;;5.50;1.40;;;;;;;12.19;79.03;99714.84;433989;1267;70879;-54
2022/07/12 02:19:19;;;;;;;2.60;1.30;;;;;;;12.23;79.04;99713.30;451164;1266;68528;-56
2022/07/12 02:29:25;;;;;;;4.00;1.10;;;;;;;12.30;78.82;99714.20;434354;1267;70659;-56
2022/07/12 02:39:32;;;;;;;2.20;1.00;;;;;;;12.32;78.71;99708.45;442490;1266;59790;-54
2022/07/12 02:49:37;;;;;;;1.90;0.80;;;;;;;12.31;78.85;99702.23;434437;1267;59751;-56
2022/07/12 02:59:43;;;;;;;0.70;0.70;;;;;;;12.35;78.99;99698.44;434096;1266;71888;-55
2022/07/12 03:09:49;;;;;;;1.00;0.90;;;;;;;12.40;79.30;99695.44;433981;1267;68519;-56
2022/07/12 03:19:55;;;;;;;1.40;1.10;;;;;;;14.35;80.16;99694.73;434216;1267;71474;-54
2022/07/12 03:30:01;;;;;;;1.90;0.90;;;;;;;16.88;73.96;99697.14;433890;1267;59867;-59
2022/07/12 03:40:09;;;;;;;3.70;1.80;;;;;;;15.19;72.65;99702.98;433857;1268;59786;-57
2022/07/12 03:50:15;;;;;;;4.70;2.30;;;;;;;14.41;73.64;99702.87;450968;1266;72462;-57
2022/07/12 04:00:21;;;;;;;6.60;2.00;;;;;;;14.17;74.20;99691.34;450909;1266;69637;-57
2022/07/12 04:10:26;;;;;;;2.90;1.80;;;;;;;14.38;74.37;99683.94;437362;1267;71495;-55
2022/07/12 04:20:33;;;;;;;3.30;2.10;;;;;;;14.91;73.65;99675.42;433923;1268;60703;-57
2022/07/12 04:30:38;;;;;;;3.30;1.10;;;;;;;15.42;72.87;99669.52;434227;1267;60563;-57
2022/07/12 04:40:44;;;;;;;2.70;1.00;;;;;;;18.23;71.17;99670.83;434348;1267;72811;-55
2022/07/12 04:50:50;;;;;;;1.40;0.80;;;;;;;22.75;63.07;99668.08;434131;1266;69393;-57
2022/07/12 05:00:56;;;;;;;3.40;1.30;;;;;;;23.44;58.73;99668.42;434064;1266;72628;-56
2022/07/12 05:11:02;;;;;;;6.40;1.50;;;;;;;22.42;56.35;99667.71;434178;1267;60566;-57
2022/07/12 05:21:08;;;;;;;2.20;1.30;;;;;;;20.32;57.77;99664.15;434863;1267;60685;-58
2022/07/12 05:31:14;;;;;;;2.70;1.30;;;;;;;18.52;59.77;99665.97;435047;1267;74207;-54
2022/07/12 05:41:20;;;;;;;7.90;2.10;;;;;;;17.44;61.66;99677.40;434221;1267;69846;-56
2022/07/12 06:01:49;;;;;;;3.80;2.00;;;;;;;20.75;61.62;99660.79;434726;1267;60580;-58
2022/07/12 06:11:55;;;;;;;3.90;2.10;;;;;;;26.03;53.86;99650.68;434839;1267;60612;-58
2022/07/12 06:22:01;;;;;;;5.10;1.90;;;;;;;24.76;51.26;99650.11;434891;1267;75066;-58
2022/07/12 06:32:08;;;;;;;1.70;1.30;;;;;;;28.29;49.26;99638.00;434802;1267;68353;-58
2022/07/12 06:42:14;;;;;;;3.00;1.70;;;;;;;31.23;43.30;99633.98;434747;1267;71924;-56
2022/07/12 06:52:20;;;;;;;1.50;0.90;;;;;;;31.45;41.22;99632.86;434993;1267;61014;-58
2022/07/12 07:02:33;;;;;;;7.40;2.90;;;;;;;34.32;37.63;99625.35;435214;1267;60575;-56
2022/07/12 07:12:40;;;;;;;2.50;1.20;;;;;;;37.93;34.23;99624.06;434867;1268;73079;-59
2022/07/12 07:22:45;;;;;;;3.60;1.30;;;;;;;38.75;30.95;99620.20;435158;1268;61085;-57
2022/07/12 07:32:51;;;;;;;1.10;1.00;;;;;;;39.20;28.90;99614.72;434991;1266;62565;-58
2022/07/12 07:43:01;;;;;;;1.80;0.90;;;;;;;40.38;26.97;99614.64;435050;1267;60597;-60
2022/07/12 07:53:07;;;;;;;7.70;2.20;;;;;;;39.34;25.10;99623.77;435177;1267;60561;-57
2022/07/12 08:03:12;;;;;;;2.70;0.70;;;;;;;34.20;27.45;99624.92;435466;1265;72564;-56
2022/07/12 08:13:19;;;;;;;4.30;0.60;;;;;;;29.63;30.90;99626.19;434831;1266;67969;-56
2022/07/12 08:23:25;;;;;;;0.80;0.50;;;;;;;26.08;34.60;99633.06;434852;1267;71594;-57
2022/07/12 08:33:31;;;;;;;1.30;0.70;;;;;;;24.29;37.68;99636.48;434902;1268;60932;-57
2022/07/12 08:43:38;;;;;;;1.60;0.30;;;;;;;23.13;39.80;99642.01;435020;1268;60610;-58
2022/07/12 08:53:43;;;;;;;4.30;0.80;;;;;;;22.96;40.34;99637.65;435182;1268;72645;-57
2022/07/12 09:04:15;;;;;;;4.60;0.90;;;;;;;22.78;40.27;99643.83;434951;1266;68437;-58
2022/07/12 09:14:22;;;;;;;2.20;0.60;;;;;;;23.28;40.03;99641.36;435260;1267;71501;-59
2022/07/12 09:24:29;;;;;;;2.90;0.40;;;;;;;22.14;41.25;99638.55;435153;1266;61140;-57
2022/07/12 09:45:01;;;;;;;2.40;0.80;;;;;;;22.56;41.78;99636.73;435277;1268;72788;-61
2022/07/12 09:55:08;;;;;;;;;;;;;;;22.95;41.19;99631.77;435211;1268;68555;-60
2022/07/12 10:05:16;;;;;;;0.80;0.40;;;;;;;22.64;40.41;99621.70;435115;1268;71549;-58
2022/07/12 10:15:23;;;;;;;1.70;0.40;;;;;;;22.06;40.84;99635.11;435050;1266;60669;-57
2022/07/12 10:25:32;;;;;;;;;;;;;;;22.44;41.56;99621.80;435520;1267;60600;-59
2022/07/12 10:35:38;;;;;;;1.50;1.20;;;;;;;22.43;40.65;99621.70;435124;1266;73956;-59
2022/07/12 10:45:46;;;;;;;0.60;0.30;;;;;;;22.87;39.74;99618.95;435344;1268;68539;-58
2022/07/12 10:56:04;;;;;;;;;;;;;;;22.69;39.37;99607.88;434834;1267;71500;-58
2022/07/12 11:06:11;;;;;;;0.30;0.20;;;;;;;23.04;38.01;99604.33;434851;1266;60572;-57
2022/07/12 11:16:18;;;;;;;0.50;0.30;;;;;;;23.39;35.92;99592.90;435478;1267;60550;-57
2022/07/12 11:26:25;;;;;;;0.20;0.20;;;;;;;23.81;35.12;99588.56;434633;1268;298496;-57
2022/07/12 11:36:32;;;;;;;0.80;0.30;;;;;;;23.73;34.76;99586.02;434708;1267;68442;-57
2022/07/12 11:46:38;;;;;;;1.70;0.50;;;;;;;23.63;34.81;99580.92;435001;1267;71617;-54
2022/07/12 11:56:43;;;;;;;1.00;0.20;;;;;;;23.98;34.65;99578.20;435441;1266;61120;-57
2022/07/12 12:06:49;;;;;;;2.70;0.40;;;;;;;23.94;34.20;99570.75;435433;1267;60572;-58
2022/07/12 12:16:55;;;;;;;4.90;0.60;;;;;;;23.55;34.64;99556.54;435348;1266;72832;-58
2022/07/12 12:27:01;;;;;;;2.70;0.50;;;;;;;23.71;35.22;99554.69;435061;1266;69385;-58
2022/07/12 12:37:08;;;;;;;1.10;0.30;;;;;;;23.60;35.32;99551.11;435101;1266;71596;-57
2022/07/12 12:47:32;;;;;;;2.60;0.30;;;;;;;23.52;36.04;99549.06;435809;1268;61142;-58
2022/07/12 12:57:38;;;;;;;0.80;0.50;;;;;;;23.65;36.12;99540.38;435414;1267;60558;-58
2022/07/12 13:07:44;;;;;;;0.70;0.40;;;;;;;23.56;36.26;99533.21;434984;1267;72730;-57
2022/07/12 13:17:50;;;;;;;2.80;0.40;;;;;;;23.76;36.27;99527.04;434742;1267;68665;-58
2022/07/12 13:27:56;;;;;;;1.90;0.30;;;;;;;23.70;36.49;99521.44;434857;1267;71613;-59
2022/07/12 13:38:02;;;;;;;1.80;0.20;;;;;;;23.91;36.43;99524.76;434961;1267;62164;-59
2022/07/12 13:48:08;;;;;;;2.50;0.40;;;;;;;23.86;36.24;99522.27;435162;1268;61178;-59
2022/07/12 13:58:14;;;;;;;3.70;0.50;;;;;;;23.75;36.41;99512.48;434931;1267;73074;-57
2022/07/12 14:08:20;;;;;;;3.60;0.30;;;;;;;23.85;36.39;99504.59;435014;1266;69870;-59
2022/07/12 14:18:26;;;;;;;0.60;0.20;;;;;;;23.54;36.36;99504.86;434797;1265;71319;-58
2022/07/12 14:28:32;;;;;;;2.30;0.20;;;;;;;23.44;36.26;99499.13;435052;1268;60564;-58
2022/07/12 14:38:38;;;;;;;2.00;0.20;;;;;;;23.29;36.43;99487.64;434364;1267;60756;-57
2022/07/12 14:48:44;;;;;;;1.50;0.30;;;;;;;23.39;37.14;99483.23;434471;1267;72781;-59
2022/07/12 14:58:50;;;;;;;2.00;0.30;;;;;;;23.60;37.01;99476.85;433866;1268;68979;-58
2022/07/12 15:08:56;;;;;;;1.50;0.50;;;;;;;23.42;36.57;99465.42;433268;1267;71491;-56
2022/07/12 15:19:02;;;;;;;0.70;0.20;;;;;;;23.23;37.09;99464.77;433595;1268;60611;-57
2022/07/12 15:29:08;;;;;;;1.90;0.60;;;;;;;22.98;37.84;99462.01;433426;1268;60779;-55
2022/07/12 15:39:14;;;;;;;1.70;0.50;;;;;;;23.04;38.44;99448.80;433626;1268;71648;-57
2022/07/12 15:49:19;;;;;;;0.40;0.10;;;;;;;23.26;38.28;99439.84;433508;1267;68487;-58
2022/07/12 15:59:26;;;;;;;0.60;0.30;;;;;;;23.42;38.06;99440.86;433375;1268;73300;-57
2022/07/12 16:09:32;;;;;;;2.70;0.50;;;;;;;23.11;37.42;99446.71;433084;1268;60567;-55
2022/07/12 16:19:38;;;;;;;0.70;0.20;;;;;;;22.91;37.07;99424.30;444952;1266;60469;-57
2022/07/12 16:29:43;;;;;;;0.60;0.30;;;;;;;22.69;37.08;99424.52;433491;1267;72596;-54
2022/07/12 16:39:49;;;;;;;0.50;0.30;;;;;;;22.44;37.45;99425.41;433860;1268;68687;-58
2022/07/12 16:49:55;;;;;;;1.40;0.60;;;;;;;22.15;36.91;99413.05;433441;1268;71367;-56
2022/07/12 17:00:01;;;;;;;2.00;0.40;;;;;;;22.06;37.02;99418.86;433439;1266;61055;-57
2022/07/12 17:10:09;;;;;;;3.20;0.40;;;;;;;21.90;37.33;99422.68;433794;1268;61024;-56
2022/07/12 17:20:15;;;;;;;2.40;0.30;;;;;;;21.70;36.74;99418.39;434421;1266;74027;-55
2022/07/12 17:30:21;;;;;;;1.50;0.10;;;;;;;21.61;37.10;99422.38;434693;1266;68511;-57
2022/07/12 17:40:27;;;;;;;1.80;0.40;;;;;;;21.46;37.58;99434.36;434412;1268;71375;-56
2022/07/12 17:50:33;;;;;;;0.90;0.40;;;;;;;21.21;37.88;99442.92;434209;1268;60758;-58
2022/07/12 18:00:39;;;;;;;1.20;0.20;;;;;;;20.94;37.77;99439.42;435236;1266;61473;-57
2022/07/12 18:10:45;;;;;;;1.00;0.50;;;;;;;20.77;38.01;99438.90;435719;1267;72790;-57
2022/07/12 18:20:53;;;;;;;0.80;0.70;;;;;;;20.63;38.59;99441.34;435205;1268;68291;-57
2022/07/12 18:30:59;;;;;;;1.40;0.40;;;;;;;20.53;38.94;99439.73;434997;1268;71786;-57
2022/07/12 18:41:06;;;;;;;0.50;0.20;;;;;;;20.30;39.17;99442.26;435541;1268;60544;-60
2022/07/12 18:51:12;;;;;;;2.40;0.80;;;;;;;20.10;39.56;99452.64;434990;1268;61213;-58
2022/07/12 19:01:20;;;;;;;0.80;0.50;;;;;;;19.89;40.00;99458.77;434816;1268;72959;-57
2022/07/12 19:11:25;;;;;;;1.60;0.60;;;;;;;19.69;40.25;99465.77;442574;1268;67735;-60
2022/07/12 19:21:32;;;;;;;0.70;0.50;;;;;;;19.53;40.66;99475.27;434480;1268;72889;-55
2022/07/12 19:31:38;;;;;;;0.50;0.50;;;;;;;19.37;41.00;99478.45;438446;1267;61160;-56
2022/07/12 19:41:43;;;;;;;9.60;0.90;;;;;;;19.27;41.35;99475.61;434556;1268;60597;-58
2022/07/12 19:51:49;;;;;;;1.10;0.40;;;;;;;19.08;41.66;99477.66;434846;1268;72947;-56
2022/07/12 20:01:55;;;;;;;1.90;0.50;;;;;;;18.90;42.42;99479.27;434280;1268;68523;-56
2022/07/12 20:12:01;;;;;;;1.70;0.40;;;;;;;18.77;43.19;99475.05;433368;1268;72888;-58
2022/07/12 20:22:08;;;;;;;0.80;0.70;;;;;;;18.69;43.67;99480.17;433833;1268;60923;-57
2022/07/12 20:32:14;;;;;;;0.90;0.50;;;;;;;18.59;43.85;99483.63;450926;1266;59050;-56
2022/07/12 20:42:20;;;;;;;2.00;0.80;;;;;;;18.47;44.42;99485.11;442514;1267;72708;-56
2022/07/12 20:52:26;;;;;;;2.60;0.50;;;;;;;18.39;44.57;99477.09;433729;1266;68700;-58
2022/07/12 21:02:32;;;;;;;1.20;0.90;;;;;;;18.28;44.72;99477.56;434065;1268;72540;-58
2022/07/12 21:12:38;;;;;;;1.00;0.50;;;;;;;18.14;44.81;99484.77;433067;1267;60565;-56
2022/07/12 21:22:44;;;;;;;1.60;0.30;;;;;;;17.96;45.14;99483.61;433017;1266;60734;-55
2022/07/12 21:32:50;;;;;;;0.60;0.50;;;;;;;17.73;45.73;99485.14;434490;1268;72734;-55
2022/07/12 21:42:57;;;;;;;2.00;0.50;;;;;;;17.43;46.48;99484.09;434312;1268;67344;-55
2022/07/12 21:53:03;;;;;;;0.60;0.40;;;;;;;17.18;47.07;99484.12;433977;1268;71568;-55
2022/07/12 22:03:11;;;;;;;0.80;0.50;;;;;;;16.98;47.80;99485.91;434233;1267;60568;-57
2022/07/12 22:13:17;;;;;;;1.70;0.40;;;;;;;16.82;48.26;99485.95;435802;1268;60558;-55
2022/07/12 22:23:23;;;;;;;1.20;0.40;;;;;;;16.64;48.96;99487.26;434231;1268;72790;-57
2022/07/12 22:33:29;;;;;;;0.70;0.30;;;;;;;16.40;49.71;99488.11;434288;1266;69413;-54
2022/07/12 22:43:35;;;;;;;0.40;0.40;;;;;;;16.15;50.12;99499.54;437323;1266;73268;-55
2022/07/12 22:53:41;;;;;;;0.60;0.60;;;;;;;15.93;50.92;99503.24;434191;1268;60605;-59
2022/07/12 23:03:47;;;;;;;2.20;0.80;;;;;;;15.80;51.89;99504.52;434297;1266;60574;-57
2022/07/12 23:13:53;;;;;;;0.80;0.40;;;;;;;15.64;52.60;99502.38;436567;1267;73145;-57
2022/07/12 23:23:59;;;;;;;1.00;0.70;;;;;;;15.46;53.24;99501.09;434565;1268;315552;-56
2022/07/12 23:34:04;;;;;;;0.90;0.50;;;;;;;15.32;53.96;99504.88;434945;1267;70492;-55
2022/07/12 23:44:10;;;;;;;0.70;0.40;;;;;;;15.16;54.82;99503.60;435246;1267;60726;-55
2022/07/12 23:54:16;;;;;;;1.60;0.80;;;;;;;15.02;55.88;99494.95;434878;1266;61893;-56
